Mission, Canada
Current Conditions -  °F | °C
As of 6:00 AM on Sunday 21 Dec 2014 (Local Time) from CYXX Reporting Station
Broken Clouds Broken Clouds  
Wind Chill: 42°   Ceiling: 15000
Heat Index: 46°   Visibility: 10mi
Dew Point: 43°   Wind: 9mph
Humidity: 87%   Direction: 200°SSW
Pressure: 29.73"   Gusts: NA
Location:  49.13°N, 122.3°W
Report Text: CYXX 211400Z 20008KT 10SM FEW100 BKN150 08/06 A2973 RMK AC2AC4 SLP069
Loading
Personal Weather Stations






























Interactive Weather Map New forecast layout! Learn more

10-Day Weather Forecast

Advertisements
Track Severe Weather on mobile